createdAt,value
2018-11-06T00:01:20.378Z,8.90
2018-11-06T00:03:29.381Z,8.90
2018-11-06T00:05:32.584Z,8.80
2018-11-06T00:07:35.756Z,8.80
2018-11-06T00:09:38.984Z,8.80
2018-11-06T00:11:42.215Z,8.70
2018-11-06T00:13:45.428Z,8.60
2018-11-06T00:15:49.003Z,8.50
2018-11-06T00:17:52.196Z,8.50
2018-11-06T00:19:55.355Z,8.60
2018-11-06T00:21:58.889Z,8.50
2018-11-06T00:24:02.111Z,8.60
2018-11-06T00:26:05.472Z,8.50
2018-11-06T00:28:08.970Z,8.60
2018-11-06T00:30:13.517Z,8.50
2018-11-06T00:32:16.861Z,8.50
2018-11-06T00:34:20.160Z,8.50
2018-11-06T00:36:23.459Z,8.50
2018-11-06T00:38:26.718Z,8.40
2018-11-06T00:40:29.884Z,8.30
2018-11-06T00:42:33.443Z,8.40
2018-11-06T00:44:36.680Z,8.40
2018-11-06T00:46:40.045Z,8.30
2018-11-06T00:48:43.504Z,8.30
2018-11-06T00:50:46.763Z,8.30
2018-11-06T00:52:49.981Z,8.30
2018-11-06T00:54:53.320Z,8.20
2018-11-06T00:56:56.570Z,8.10
2018-11-06T00:58:59.831Z,8.20
2018-11-06T01:01:03.145Z,8.20
2018-11-06T01:03:06.553Z,8.20
2018-11-06T01:05:11.223Z,8.10
2018-11-06T01:07:15.261Z,8.10
2018-11-06T01:09:18.624Z,8.20
2018-11-06T01:11:22.301Z,8.20
2018-11-06T01:13:25.644Z,8.20
2018-11-06T01:15:29.324Z,8.20
2018-11-06T01:17:33.264Z,8.20
2018-11-06T01:19:36.490Z,8.10
2018-11-06T01:21:39.804Z,8.10
2018-11-06T01:23:43.016Z,8.10
2018-11-06T01:25:46.297Z,8.10
2018-11-06T01:27:49.604Z,8.10
2018-11-06T01:29:52.796Z,8.10
2018-11-06T01:31:55.969Z,8.10
2018-11-06T01:33:59.193Z,8.10
2018-11-06T01:36:02.437Z,8.10
2018-11-06T01:38:06.080Z,8.00
2018-11-06T01:40:11.712Z,8.10
2018-11-06T01:42:14.902Z,8.00
2018-11-06T01:44:18.463Z,8.10
2018-11-06T01:46:22.072Z,8.00
2018-11-06T01:48:25.268Z,7.90
2018-11-06T01:50:28.445Z,7.80
2018-11-06T01:52:32.474Z,7.80
2018-11-06T01:54:35.731Z,7.80
2018-11-06T01:56:39.045Z,7.80
2018-11-06T01:58:42.916Z,7.80
2018-11-06T02:00:46.239Z,7.90
2018-11-06T02:02:49.529Z,8.00
2018-11-06T02:04:52.716Z,8.00
2018-11-06T02:06:56.254Z,8.10
2018-11-06T02:08:59.760Z,8.10
2018-11-06T02:11:03.607Z,8.20
2018-11-06T02:13:07.128Z,8.20
2018-11-06T02:15:10.538Z,8.10
2018-11-06T02:17:14.501Z,8.20
2018-11-06T02:19:17.708Z,8.20
2018-11-06T02:21:21.212Z,8.30
2018-11-06T02:23:24.589Z,8.30
2018-11-06T02:25:28.120Z,8.20
2018-11-06T02:27:31.656Z,8.20
2018-11-06T02:29:35.165Z,8.30
2018-11-06T02:31:38.359Z,8.30
2018-11-06T02:33:42.001Z,8.30
2018-11-06T02:35:45.237Z,8.40
2018-11-06T02:37:48.426Z,8.40
2018-11-06T02:39:51.612Z,8.40
2018-11-06T02:41:54.917Z,8.40
2018-11-06T02:43:58.106Z,8.40
2018-11-06T02:46:01.425Z,8.40
2018-11-06T02:48:06.521Z,8.40
2018-11-06T02:50:10.563Z,8.40
2018-11-06T02:52:14.104Z,8.40
2018-11-06T02:54:17.344Z,8.40
2018-11-06T02:56:20.520Z,8.50
2018-11-06T02:58:24.079Z,8.40
2018-11-06T03:00:28.107Z,8.40
2018-11-06T03:02:31.769Z,8.40
2018-11-06T03:04:34.984Z,8.30
2018-11-06T03:06:38.197Z,8.30
2018-11-06T03:08:42.343Z,8.20
2018-11-06T03:10:45.850Z,8.10
2018-11-06T03:12:49.240Z,8.10
2018-11-06T03:14:52.487Z,8.10
2018-11-06T03:16:55.719Z,8.10
2018-11-06T03:18:59.120Z,8.10
2018-11-06T03:21:02.671Z,8.00
2018-11-06T03:23:06.403Z,8.00
2018-11-06T03:25:10.278Z,8.10
2018-11-06T03:27:13.509Z,8.10
2018-11-06T03:29:17.228Z,8.10
2018-11-06T03:31:20.492Z,8.10
2018-11-06T03:33:24.224Z,8.00
2018-11-06T03:35:27.848Z,8.00
2018-11-06T03:37:31.237Z,7.90
2018-11-06T03:39:34.476Z,7.90
2018-11-06T03:41:37.716Z,7.80
2018-11-06T03:43:40.900Z,7.70
2018-11-06T03:45:44.101Z,7.70
2018-11-06T03:47:47.328Z,7.60
2018-11-06T03:49:50.669Z,7.50
2018-11-06T03:51:53.857Z,7.50
2018-11-06T03:53:57.050Z,7.60
2018-11-06T03:56:00.266Z,7.60
2018-11-06T03:58:03.477Z,7.60
2018-11-06T04:00:09.940Z,7.50
2018-11-06T04:02:13.328Z,7.50
2018-11-06T04:04:16.753Z,7.60
2018-11-06T04:06:20.006Z,7.50
2018-11-06T04:08:23.196Z,7.60
2018-11-06T04:10:26.381Z,7.70
2018-11-06T04:12:29.577Z,7.60
2018-11-06T04:14:32.758Z,7.60
2018-11-06T04:16:36.791Z,7.50
2018-11-06T04:18:39.996Z,7.40
2018-11-06T04:20:43.256Z,7.40
2018-11-06T04:22:46.448Z,7.40
2018-11-06T04:24:49.633Z,7.40
2018-11-06T04:26:53.077Z,7.30
2018-11-06T04:28:56.265Z,7.40
2018-11-06T04:30:59.445Z,7.50
2018-11-06T04:33:03.000Z,7.50
2018-11-06T04:35:07.236Z,7.40
2018-11-06T04:37:11.141Z,7.40
2018-11-06T04:39:14.723Z,7.40
2018-11-06T04:41:18.044Z,7.50
2018-11-06T04:43:21.414Z,7.40
2018-11-06T04:45:25.236Z,7.50
2018-11-06T04:47:28.653Z,7.60
2018-11-06T04:49:32.204Z,7.70
2018-11-06T04:51:35.495Z,7.80
2018-11-06T04:53:38.676Z,7.80
2018-11-06T04:55:41.864Z,7.90
2018-11-06T04:57:45.064Z,7.90
2018-11-06T04:59:48.265Z,7.90
2018-11-06T05:01:52.039Z,7.90
2018-11-06T05:03:55.541Z,7.90
2018-11-06T05:05:58.760Z,7.90
2018-11-06T05:08:01.992Z,7.90
2018-11-06T05:10:07.162Z,7.90
2018-11-06T05:12:10.420Z,7.90
2018-11-06T05:14:13.731Z,7.90
2018-11-06T05:16:17.117Z,7.90
2018-11-06T05:18:20.351Z,7.90
2018-11-06T05:20:23.543Z,7.80
2018-11-06T05:22:27.016Z,7.60
2018-11-06T05:24:30.216Z,7.60
2018-11-06T05:26:33.397Z,7.60
2018-11-06T05:28:36.656Z,7.60
2018-11-06T05:30:39.841Z,7.60
2018-11-06T05:32:44.395Z,7.40
2018-11-06T05:34:47.862Z,7.40
2018-11-06T05:36:51.196Z,7.40
2018-11-06T05:38:54.520Z,7.40
2018-11-06T05:40:59.500Z,7.30
2018-11-06T05:43:02.713Z,7.30
2018-11-06T05:45:06.388Z,7.30
2018-11-06T05:47:09.675Z,7.40
2018-11-06T05:49:13.131Z,7.30
2018-11-06T05:51:16.636Z,7.30
2018-11-06T05:53:20.122Z,7.20
2018-11-06T05:55:23.828Z,7.30
2018-11-06T05:57:27.064Z,7.20
2018-11-06T05:59:30.308Z,7.30
2018-11-06T06:01:33.481Z,7.40
2018-11-06T06:03:36.785Z,7.40
2018-11-06T06:05:40.362Z,7.40
2018-11-06T06:07:43.605Z,7.40
2018-11-06T06:09:47.785Z,7.40
2018-11-06T06:11:51.000Z,7.50
2018-11-06T06:13:54.561Z,7.60
2018-11-06T06:15:57.843Z,7.60
2018-11-06T06:18:02.025Z,7.50
2018-11-06T06:20:06.799Z,7.60
2018-11-06T06:22:10.027Z,7.70
2018-11-06T06:24:13.376Z,7.70
2018-11-06T06:26:16.576Z,7.70
2018-11-06T06:28:20.165Z,7.70
2018-11-06T06:30:23.937Z,7.70
2018-11-06T06:32:27.267Z,7.70
2018-11-06T06:34:30.632Z,7.60
2018-11-06T06:36:33.925Z,7.60
2018-11-06T06:38:37.190Z,7.70
2018-11-06T06:40:40.567Z,7.80
2018-11-06T06:42:44.258Z,7.90
2018-11-06T06:44:48.017Z,7.90
2018-11-06T06:46:51.220Z,7.90
2018-11-06T06:48:54.408Z,7.90
2018-11-06T06:50:57.709Z,7.80
2018-11-06T06:53:00.951Z,7.90
2018-11-06T06:55:05.364Z,7.90
2018-11-06T06:57:08.722Z,8.00
2018-11-06T06:59:12.202Z,8.00
2018-11-06T07:01:15.545Z,7.90
2018-11-06T07:03:18.730Z,7.80
2018-11-06T07:05:23.332Z,7.90
2018-11-06T07:07:26.531Z,7.80
2018-11-06T07:09:29.881Z,7.70
2018-11-06T07:11:33.378Z,7.40
2018-11-06T07:13:37.058Z,7.50
2018-11-06T07:15:40.425Z,7.50
2018-11-06T07:17:44.688Z,7.50
2018-11-06T07:19:47.928Z,7.50
2018-11-06T07:21:51.352Z,7.70
2018-11-06T07:23:54.944Z,7.80
2018-11-06T07:25:58.118Z,7.60
2018-11-06T07:28:01.368Z,7.40
2018-11-06T07:30:06.460Z,7.30
2018-11-06T07:32:09.640Z,7.40
2018-11-06T07:34:12.916Z,7.50
2018-11-06T07:36:16.504Z,7.50
2018-11-06T07:38:19.733Z,7.60
2018-11-06T07:40:22.991Z,7.60
2018-11-06T07:42:26.381Z,7.70
2018-11-06T07:44:29.888Z,7.70
2018-11-06T07:46:33.482Z,7.60
2018-11-06T07:48:36.734Z,7.60
2018-11-06T07:50:40.034Z,7.50
2018-11-06T07:52:44.102Z,7.60
2018-11-06T07:54:47.292Z,7.60
2018-11-06T07:56:50.576Z,7.70
2018-11-06T07:58:53.836Z,7.90
2018-11-06T08:00:57.218Z,8.00
2018-11-06T08:03:00.747Z,8.10
2018-11-06T08:05:04.016Z,8.30
2018-11-06T08:07:07.621Z,8.40
2018-11-06T08:09:11.237Z,8.40
2018-11-06T08:11:14.562Z,8.30
2018-11-06T08:13:17.880Z,8.20
2018-11-06T08:15:21.612Z,8.20
2018-11-06T08:17:24.874Z,8.20
2018-11-06T08:19:28.102Z,8.30
2018-11-06T08:21:31.392Z,8.30
2018-11-06T08:23:34.634Z,8.30
2018-11-06T08:25:38.032Z,8.30
2018-11-06T08:27:44.560Z,8.10
2018-11-06T08:29:48.120Z,8.10
2018-11-06T08:31:51.679Z,8.30
2018-11-06T08:33:54.776Z,8.30
2018-11-06T08:35:58.757Z,8.40
2018-11-06T08:38:02.360Z,8.40
2018-11-06T08:40:06.751Z,8.40
2018-11-06T08:42:09.972Z,8.60
2018-11-06T08:44:13.185Z,8.60
2018-11-06T08:46:16.380Z,8.60
2018-11-06T08:48:19.635Z,8.70
2018-11-06T08:50:23.015Z,8.80
2018-11-06T08:52:26.301Z,8.70
2018-11-06T08:54:29.583Z,8.70
2018-11-06T08:56:33.296Z,8.80
2018-11-06T08:58:36.581Z,8.90
2018-11-06T09:00:39.792Z,8.90
2018-11-06T09:02:44.478Z,8.90
2018-11-06T09:04:48.160Z,8.70
2018-11-06T09:06:51.608Z,8.60
2018-11-06T09:08:54.947Z,8.60
2018-11-06T09:10:58.308Z,8.80
2018-11-06T09:13:01.573Z,8.90
2018-11-06T09:15:05.550Z,8.90
2018-11-06T09:17:08.903Z,8.80
2018-11-06T09:19:12.292Z,8.90
2018-11-06T09:21:15.552Z,8.80
2018-11-06T09:23:18.779Z,8.80
2018-11-06T09:25:22.125Z,8.80
2018-11-06T09:27:25.436Z,9.00
2018-11-06T09:29:28.626Z,9.10
2018-11-06T09:31:31.843Z,9.20
2018-11-06T09:33:35.277Z,9.40
2018-11-06T09:35:38.515Z,9.40
2018-11-06T09:37:42.726Z,9.50
2018-11-06T09:39:46.169Z,9.60
2018-11-06T09:41:49.521Z,9.60
2018-11-06T09:43:53.033Z,9.60
2018-11-06T09:45:56.256Z,9.60
2018-11-06T09:47:59.512Z,9.80
2018-11-06T09:50:02.932Z,9.60
2018-11-06T09:52:06.308Z,9.70
2018-11-06T09:54:09.634Z,9.70
2018-11-06T09:56:13.068Z,9.70
2018-11-06T09:58:16.552Z,9.70
2018-11-06T10:00:20.469Z,9.80
2018-11-06T10:02:23.832Z,9.90
2018-11-06T10:04:27.113Z,10.00
2018-11-06T10:06:30.393Z,10.10
2018-11-06T10:08:34.257Z,10.10
2018-11-06T10:10:37.600Z,10.20
2018-11-06T10:12:41.187Z,10.20
2018-11-06T10:14:44.926Z,10.20
2018-11-06T10:16:48.494Z,10.20
2018-11-06T10:18:52.020Z,10.20
2018-11-06T10:20:55.259Z,10.30
2018-11-06T10:22:58.526Z,10.30
2018-11-06T10:25:01.780Z,10.50
2018-11-06T10:27:04.961Z,10.50
2018-11-06T10:29:08.621Z,10.50
2018-11-06T10:31:11.921Z,10.50
2018-11-06T10:33:15.169Z,10.60
2018-11-06T10:35:18.930Z,10.50
2018-11-06T10:37:22.158Z,10.60
2018-11-06T10:39:25.484Z,10.60
2018-11-06T10:41:29.095Z,10.70
2018-11-06T10:43:32.748Z,10.80
2018-11-06T10:45:36.117Z,11.00
2018-11-06T10:47:42.875Z,11.10
2018-11-06T10:49:46.070Z,11.20
2018-11-06T10:51:49.301Z,11.30
2018-11-06T10:53:52.729Z,11.20
2018-11-06T10:55:56.102Z,11.30
2018-11-06T10:57:59.338Z,11.40
2018-11-06T11:00:03.148Z,11.40
2018-11-06T11:02:12.248Z,11.50
2018-11-06T11:04:20.569Z,11.50
2018-11-06T11:06:23.905Z,11.60
2018-11-06T11:08:27.200Z,11.70
2018-11-06T11:10:30.357Z,11.70
2018-11-06T11:12:33.756Z,11.80
2018-11-06T11:14:37.012Z,11.90
2018-11-06T11:16:40.232Z,11.90
2018-11-06T11:18:43.777Z,12.20
2018-11-06T11:20:47.018Z,12.50
2018-11-06T11:22:50.195Z,12.70
2018-11-06T11:24:53.517Z,12.90
2018-11-06T11:26:56.820Z,13.20
2018-11-06T11:29:00.049Z,13.60
2018-11-06T11:31:03.505Z,13.80
2018-11-06T11:33:06.773Z,13.90
2018-11-06T11:35:10.654Z,14.00
2018-11-06T11:37:14.629Z,14.20
2018-11-06T11:39:17.833Z,14.20
2018-11-06T11:41:21.043Z,14.40
2018-11-06T11:43:24.329Z,14.20
2018-11-06T11:45:27.544Z,14.50
2018-11-06T11:47:30.717Z,14.70
2018-11-06T11:49:34.041Z,15.00
2018-11-06T11:51:37.449Z,15.40
2018-11-06T11:53:40.690Z,15.70
2018-11-06T11:55:44.434Z,15.90
2018-11-06T11:57:47.815Z,16.20
2018-11-06T11:59:51.368Z,16.50
2018-11-06T12:01:55.197Z,16.50
2018-11-06T12:03:58.426Z,16.20
2018-11-06T12:06:01.713Z,16.00
2018-11-06T12:08:05.088Z,16.30
2018-11-06T12:10:10.047Z,16.60
2018-11-06T12:12:13.436Z,16.80
2018-11-06T12:14:16.676Z,16.70
2018-11-06T12:16:19.883Z,16.50
2018-11-06T12:18:23.141Z,16.60
2018-11-06T12:20:26.789Z,16.90
2018-11-06T12:22:30.232Z,16.80
2018-11-06T12:24:33.669Z,16.70
2018-11-06T12:26:37.028Z,16.80
2018-11-06T12:28:40.244Z,16.80
2018-11-06T12:30:43.583Z,16.80
2018-11-06T12:32:46.894Z,16.80
2018-11-06T12:34:50.075Z,16.90
2018-11-06T12:36:53.284Z,17.10
2018-11-06T12:38:56.752Z,17.40
2018-11-06T12:41:00.078Z,17.70
2018-11-06T12:43:03.661Z,18.10
2018-11-06T12:45:08.788Z,18.30
2018-11-06T12:47:12.238Z,18.30
2018-11-06T12:49:15.494Z,18.30
2018-11-06T12:51:18.693Z,18.40
2018-11-06T12:53:21.937Z,18.30
2018-11-06T12:55:25.382Z,18.40
2018-11-06T12:57:28.845Z,18.30
2018-11-06T12:59:32.476Z,18.10
2018-11-06T13:01:35.724Z,17.90
2018-11-06T13:03:38.907Z,17.60
2018-11-06T13:05:42.148Z,17.50
2018-11-06T13:07:46.064Z,17.90
2018-11-06T13:09:49.371Z,17.90
2018-11-06T13:11:52.776Z,17.80
2018-11-06T13:13:55.974Z,17.60
2018-11-06T13:15:59.497Z,17.50
2018-11-06T13:18:02.923Z,17.40
2018-11-06T13:20:07.932Z,17.60
2018-11-06T13:22:11.348Z,17.80
2018-11-06T13:24:14.614Z,18.00
2018-11-06T13:26:17.973Z,18.10
2018-11-06T13:28:21.261Z,18.00
2018-11-06T13:30:24.425Z,18.10
2018-11-06T13:32:27.713Z,18.00
2018-11-06T13:34:31.173Z,17.90
2018-11-06T13:36:34.400Z,18.10
2018-11-06T13:38:37.684Z,18.20
2018-11-06T13:40:40.935Z,18.40
2018-11-06T13:42:44.920Z,18.70
2018-11-06T13:44:48.377Z,19.10
2018-11-06T13:46:51.608Z,19.10
2018-11-06T13:48:54.777Z,18.90
2018-11-06T13:50:58.004Z,18.50
2018-11-06T13:53:01.677Z,18.30
2018-11-06T13:55:05.854Z,17.90
2018-11-06T13:57:09.428Z,17.40
2018-11-06T13:59:12.679Z,17.10
2018-11-06T14:01:15.940Z,17.00
2018-11-06T14:03:19.242Z,17.10
2018-11-06T14:05:23.073Z,17.00
2018-11-06T14:07:26.345Z,16.80
2018-11-06T14:09:29.529Z,16.70
2018-11-06T14:11:33.138Z,16.80
2018-11-06T14:13:36.317Z,16.80
2018-11-06T14:15:39.502Z,16.80
2018-11-06T14:17:43.024Z,16.80
2018-11-06T14:19:46.377Z,16.60
2018-11-06T14:21:49.689Z,16.50
2018-11-06T14:23:52.961Z,16.30
2018-11-06T14:25:56.622Z,16.10
2018-11-06T14:27:59.796Z,16.00
2018-11-06T14:30:03.040Z,15.90
2018-11-06T14:32:06.772Z,16.00
2018-11-06T14:34:09.992Z,15.90
2018-11-06T14:36:13.378Z,15.80
2018-11-06T14:38:16.946Z,15.70
2018-11-06T14:40:20.760Z,15.50
2018-11-06T14:42:24.140Z,15.40
2018-11-06T14:44:27.838Z,15.30
2018-11-06T14:46:31.533Z,15.20
2018-11-06T14:48:34.985Z,15.10
2018-11-06T14:50:38.468Z,15.00
2018-11-06T14:52:41.696Z,14.90
2018-11-06T14:54:44.941Z,14.90
2018-11-06T14:56:48.412Z,14.80
2018-11-06T14:58:52.011Z,14.70
2018-11-06T15:00:55.286Z,14.50
2018-11-06T15:02:58.522Z,14.50
2018-11-06T15:05:01.702Z,14.40
2018-11-06T15:07:05.581Z,14.30
2018-11-06T15:09:09.748Z,14.20
2018-11-06T15:11:13.163Z,14.10
2018-11-06T15:13:16.396Z,14.00
2018-11-06T15:15:19.594Z,13.90
2018-11-06T15:17:22.767Z,13.80
2018-11-06T15:19:26.037Z,13.70
2018-11-06T15:21:29.237Z,13.60
2018-11-06T15:23:32.465Z,13.50
2018-11-06T15:25:35.861Z,13.40
2018-11-06T15:27:39.508Z,13.30
2018-11-06T15:29:42.684Z,13.20
2018-11-06T15:31:45.920Z,13.20
2018-11-06T15:33:49.433Z,13.10
2018-11-06T15:35:52.681Z,13.00
2018-11-06T15:37:55.939Z,12.90
2018-11-06T15:39:59.480Z,12.80
2018-11-06T15:42:02.702Z,12.70
2018-11-06T15:44:06.336Z,12.70
2018-11-06T15:46:09.896Z,12.60
2018-11-06T15:48:13.136Z,12.50
2018-11-06T15:50:17.564Z,12.50
2018-11-06T15:52:20.756Z,12.40
2018-11-06T15:54:24.137Z,12.40
2018-11-06T15:56:27.448Z,12.30
2018-11-06T15:58:30.701Z,12.30
2018-11-06T16:00:34.179Z,12.30
2018-11-06T16:02:37.574Z,12.20
2018-11-06T16:04:40.751Z,12.20
2018-11-06T16:06:44.276Z,12.20
2018-11-06T16:08:47.490Z,12.10
2018-11-06T16:10:51.350Z,12.10
2018-11-06T16:12:54.560Z,12.00
2018-11-06T16:14:57.744Z,12.00
2018-11-06T16:17:01.197Z,11.90
2018-11-06T16:19:04.528Z,11.90
2018-11-06T16:21:07.843Z,11.90
2018-11-06T16:23:11.212Z,11.80
2018-11-06T16:25:15.848Z,11.80
2018-11-06T16:27:19.058Z,11.80
2018-11-06T16:29:22.790Z,11.70
2018-11-06T16:31:26.258Z,11.70
2018-11-06T16:33:29.492Z,11.70
2018-11-06T16:35:32.708Z,11.70
2018-11-06T16:37:38.234Z,11.70
2018-11-06T16:39:41.425Z,11.70
2018-11-06T16:41:45.076Z,11.70
2018-11-06T16:43:48.424Z,11.60
2018-11-06T16:45:52.046Z,11.60
2018-11-06T16:47:55.585Z,11.60
2018-11-06T16:49:59.188Z,11.50
2018-11-06T16:52:02.414Z,11.50
2018-11-06T16:54:05.883Z,11.50
2018-11-06T16:56:09.139Z,11.50
2018-11-06T16:58:12.612Z,11.40
2018-11-06T17:00:19.287Z,11.40
2018-11-06T17:02:22.619Z,11.40
2018-11-06T17:04:26.189Z,11.30
2018-11-06T17:06:39.934Z,11.40
2018-11-06T17:08:43.270Z,11.20
2018-11-06T17:10:46.524Z,11.20
2018-11-06T17:12:49.732Z,11.20
2018-11-06T17:14:53.022Z,11.20
2018-11-06T17:16:56.264Z,11.20
2018-11-06T17:18:59.492Z,11.20
2018-11-06T17:21:02.732Z,11.30
2018-11-06T17:23:06.548Z,11.20
2018-11-06T17:25:11.757Z,11.20
2018-11-06T17:27:14.979Z,11.20
2018-11-06T17:29:18.305Z,11.20
2018-11-06T17:31:21.527Z,11.10
2018-11-06T17:33:24.920Z,11.10
2018-11-06T17:35:28.520Z,11.10
2018-11-06T17:37:32.012Z,11.10
2018-11-06T17:39:35.739Z,11.00
2018-11-06T17:41:39.105Z,11.00
2018-11-06T17:43:42.660Z,11.00
2018-11-06T17:45:46.285Z,11.00
2018-11-06T17:47:50.111Z,11.00
2018-11-06T17:49:53.607Z,11.00
2018-11-06T17:51:56.860Z,11.00
2018-11-06T17:54:00.289Z,10.90
2018-11-06T17:56:03.536Z,10.90
2018-11-06T17:58:07.072Z,10.90
2018-11-06T18:00:16.462Z,10.90
2018-11-06T18:02:19.684Z,10.90
2018-11-06T18:04:23.013Z,10.90
2018-11-06T18:06:26.856Z,10.90
2018-11-06T18:08:30.191Z,10.90
2018-11-06T18:10:33.402Z,10.80
2018-11-06T18:12:37.348Z,10.90
2018-11-06T18:14:40.778Z,10.90
2018-11-06T18:16:43.978Z,10.90
2018-11-06T18:18:47.475Z,10.80
2018-11-06T18:20:50.910Z,10.80
2018-11-06T18:22:54.330Z,10.80
2018-11-06T18:24:57.940Z,10.70
2018-11-06T18:27:01.312Z,10.70
2018-11-06T18:29:05.123Z,10.60
2018-11-06T18:31:08.792Z,10.70
2018-11-06T18:33:14.982Z,10.60
2018-11-06T18:35:24.024Z,10.70
2018-11-06T18:37:33.524Z,10.70
2018-11-06T18:39:41.031Z,10.60
2018-11-06T18:41:51.648Z,10.70
2018-11-06T18:43:54.864Z,10.60
2018-11-06T18:46:01.079Z,10.60
2018-11-06T18:48:04.665Z,10.60
2018-11-06T18:50:20.495Z,10.60
2018-11-06T18:52:23.842Z,10.60
2018-11-06T18:54:28.101Z,10.60
2018-11-06T18:56:31.343Z,10.60
2018-11-06T18:58:41.620Z,10.60
2018-11-06T19:00:44.864Z,10.60
2018-11-06T19:02:49.537Z,10.60
2018-11-06T19:04:52.747Z,10.50
2018-11-06T19:06:56.143Z,10.50
2018-11-06T19:08:59.530Z,10.50
2018-11-06T19:11:02.774Z,10.60
2018-11-06T19:13:06.371Z,10.50
2018-11-06T19:15:14.021Z,10.50
2018-11-06T19:17:17.216Z,10.50
2018-11-06T19:19:20.648Z,10.50
2018-11-06T19:21:23.854Z,10.50
2018-11-06T19:23:27.080Z,10.50
2018-11-06T19:25:30.316Z,10.50
2018-11-06T19:27:33.579Z,10.50
2018-11-06T19:29:36.852Z,10.50
2018-11-06T19:31:40.054Z,10.50
2018-11-06T19:33:43.260Z,10.50
2018-11-06T19:35:46.485Z,10.40
2018-11-06T19:37:49.912Z,10.50
2018-11-06T19:39:53.169Z,10.50
2018-11-06T19:41:56.391Z,10.50
2018-11-06T19:44:00.020Z,10.40
2018-11-06T19:46:03.464Z,10.40
2018-11-06T19:48:07.046Z,10.30
2018-11-06T19:50:18.361Z,10.40
2018-11-06T19:52:21.584Z,10.40
2018-11-06T19:54:25.164Z,10.40
2018-11-06T19:56:28.886Z,10.40
2018-11-06T19:58:32.288Z,10.40
2018-11-06T20:00:35.576Z,10.40
2018-11-06T20:02:40.029Z,10.40
2018-11-06T20:04:43.340Z,10.40
2018-11-06T20:06:46.884Z,10.40
2018-11-06T20:08:50.096Z,10.40
2018-11-06T20:10:53.305Z,10.40
2018-11-06T20:12:56.720Z,10.30
2018-11-06T20:14:59.908Z,10.30
2018-11-06T20:17:03.143Z,10.40
2018-11-06T20:19:06.764Z,10.40
2018-11-06T20:21:10.045Z,10.30
2018-11-06T20:23:13.422Z,10.30
2018-11-06T20:25:16.656Z,10.30
2018-11-06T20:27:19.961Z,10.30
2018-11-06T20:29:23.316Z,10.30
2018-11-06T20:31:26.564Z,10.30
2018-11-06T20:33:30.200Z,10.20
2018-11-06T20:35:33.604Z,10.20
2018-11-06T20:37:37.286Z,10.20
2018-11-06T20:39:40.681Z,10.20
2018-11-06T20:41:45.977Z,10.20
2018-11-06T20:43:49.430Z,10.20
2018-11-06T20:45:52.838Z,10.20
2018-11-06T20:47:56.082Z,10.10
2018-11-06T20:49:59.309Z,10.10
2018-11-06T20:52:02.572Z,10.10
2018-11-06T20:54:06.172Z,10.10
2018-11-06T20:56:09.913Z,10.10
2018-11-06T20:58:13.174Z,10.10
2018-11-06T21:00:22.983Z,10.10
2018-11-06T21:02:26.648Z,10.10
2018-11-06T21:04:29.893Z,10.10
2018-11-06T21:06:33.148Z,10.10
2018-11-06T21:08:36.370Z,10.00
2018-11-06T21:10:40.048Z,10.00
2018-11-06T21:12:43.424Z,10.00
2018-11-06T21:14:50.716Z,10.00
2018-11-06T21:16:53.915Z,9.90
2018-11-06T21:18:57.117Z,9.90
2018-11-06T21:21:00.419Z,9.90
2018-11-06T21:23:03.728Z,9.90
2018-11-06T21:25:07.541Z,9.90
2018-11-06T21:27:11.071Z,9.90
2018-11-06T21:29:14.307Z,9.90
2018-11-06T21:31:17.589Z,9.90
2018-11-06T21:33:20.881Z,9.90
2018-11-06T21:35:24.167Z,9.90
2018-11-06T21:37:27.511Z,9.90
2018-11-06T21:39:31.041Z,9.90
2018-11-06T21:41:34.249Z,9.90
2018-11-06T21:43:37.436Z,9.90
2018-11-06T21:45:41.040Z,9.90
2018-11-06T21:47:45.509Z,9.90
2018-11-06T21:49:48.753Z,9.90
2018-11-06T21:51:51.940Z,9.90
2018-11-06T21:53:55.162Z,9.90
2018-11-06T21:55:58.863Z,9.90
2018-11-06T21:58:02.104Z,9.90
2018-11-06T22:00:07.864Z,9.90
2018-11-06T22:02:11.443Z,9.90
2018-11-06T22:04:14.840Z,9.90
2018-11-06T22:06:18.036Z,9.90
2018-11-06T22:08:21.336Z,9.90
2018-11-06T22:10:24.621Z,9.90
2018-11-06T22:12:27.938Z,9.90
2018-11-06T22:14:31.180Z,9.90
2018-11-06T22:16:34.503Z,9.90
2018-11-06T22:18:38.355Z,9.90
2018-11-06T22:20:41.680Z,9.80
2018-11-06T22:22:45.575Z,9.90
2018-11-06T22:24:49.148Z,9.90
2018-11-06T22:26:52.361Z,9.80
2018-11-06T22:28:55.828Z,9.80
2018-11-06T22:30:59.031Z,9.80
2018-11-06T22:33:02.312Z,9.90
2018-11-06T22:35:07.018Z,9.80
2018-11-06T22:37:10.339Z,9.80
2018-11-06T22:39:14.024Z,9.80
2018-11-06T22:41:17.364Z,9.80
2018-11-06T22:43:20.573Z,9.80
2018-11-06T22:45:23.805Z,9.80
2018-11-06T22:47:27.721Z,9.80
2018-11-06T22:49:31.334Z,9.70
2018-11-06T22:51:34.826Z,9.70
2018-11-06T22:53:38.026Z,9.70
2018-11-06T22:55:41.277Z,9.70
2018-11-06T22:57:44.703Z,9.70
2018-11-06T22:59:48.044Z,9.70
2018-11-06T23:01:52.527Z,9.70
2018-11-06T23:03:55.828Z,9.80
2018-11-06T23:05:59.223Z,9.80
2018-11-06T23:08:07.892Z,9.80
2018-11-06T23:10:11.574Z,9.80
2018-11-06T23:12:15.185Z,9.80
2018-11-06T23:14:18.538Z,9.70
2018-11-06T23:16:22.371Z,9.70
2018-11-06T23:18:25.545Z,9.70
2018-11-06T23:20:29.479Z,9.70
2018-11-06T23:22:32.906Z,9.70
2018-11-06T23:24:36.148Z,9.70
2018-11-06T23:26:39.712Z,9.70
2018-11-06T23:28:43.275Z,9.70
2018-11-06T23:30:46.470Z,9.70
2018-11-06T23:32:49.877Z,9.60
2018-11-06T23:34:53.642Z,9.70
2018-11-06T23:36:56.852Z,9.70
2018-11-06T23:39:00.037Z,9.70
2018-11-06T23:41:03.368Z,9.70
2018-11-06T23:43:06.983Z,9.70
2018-11-06T23:45:10.546Z,9.70
2018-11-06T23:47:14.065Z,9.70
2018-11-06T23:49:17.400Z,9.70
2018-11-06T23:51:20.580Z,9.70
2018-11-06T23:53:23.789Z,9.70
2018-11-06T23:55:26.996Z,9.70
2018-11-06T23:57:30.826Z,9.70
2018-11-06T23:59:34.006Z,9.70
